NK75 weather

Thomas E. Perdue Heliport
Massena, New York, United States

Public forecast

Using degrees Fahrenheit for public forecast. Weather courtesy of forecast.io.

Closest aviation weather report (METAR) to Thomas E. Perdue Heliport

Closest report is Massena International Richards Field, 2.7 nm (5.0 km) E. Retrieved 2020/07/07 23:53 UTC (1 hour ago):

KMSS 072353Z AUTO 19007KT 10SM CLR 28/19 A2989 RMK AO2 SLP119 T02830189 10344 20283 54000

Closest aviation forecast (TAF) to Thomas E. Perdue Heliport

Closest forecast is Massena International Richards Field, 2.7 nm (5.0 km) E. Retrieved 2020-07-08 00:42 UTC (17 minutes ago):

TAF KMSS 072339Z 0800/0824 20012KT P6SM SCT070 FM080500 22005KT P6SM VCSH BKN090 FM081100 22005KT P6SM BKN045 FM081600 24007KT P6SM VCSH SCT070